sensor_id;sensor_type;location;lat;lon;timestamp;P1;durP1;ratioP1;P2;durP2;ratioP2
21546;SDS011;41275;51.912;4.388;2023-02-11T00:02:37;18.20;;;3.38;;
21546;SDS011;41275;51.912;4.388;2023-02-11T00:07:58;18.02;;;3.42;;
21546;SDS011;41275;51.912;4.388;2023-02-11T00:13:20;19.97;;;3.63;;
21546;SDS011;41275;51.912;4.388;2023-02-11T00:18:41;16.85;;;2.92;;
21546;SDS011;41275;51.912;4.388;2023-02-11T00:24:03;22.10;;;3.58;;
21546;SDS011;41275;51.912;4.388;2023-02-11T00:29:24;15.18;;;3.03;;
21546;SDS011;41275;51.912;4.388;2023-02-11T00:34:46;18.63;;;3.22;;
21546;SDS011;41275;51.912;4.388;2023-02-11T00:40:07;16.20;;;3.10;;
21546;SDS011;41275;51.912;4.388;2023-02-11T00:45:28;17.45;;;3.10;;
21546;SDS011;41275;51.912;4.388;2023-02-11T00:50:50;20.92;;;3.58;;
21546;SDS011;41275;51.912;4.388;2023-02-11T00:56:11;11.63;;;3.00;;
21546;SDS011;41275;51.912;4.388;2023-02-11T01:01:32;17.73;;;3.03;;
21546;SDS011;41275;51.912;4.388;2023-02-11T01:06:54;19.77;;;3.63;;
21546;SDS011;41275;51.912;4.388;2023-02-11T01:12:15;15.63;;;2.78;;
21546;SDS011;41275;51.912;4.388;2023-02-11T01:17:36;17.80;;;3.20;;
21546;SDS011;41275;51.912;4.388;2023-02-11T01:22:58;18.27;;;3.63;;
21546;SDS011;41275;51.912;4.388;2023-02-11T01:28:20;17.23;;;3.40;;
21546;SDS011;41275;51.912;4.388;2023-02-11T01:33:42;14.05;;;3.40;;
21546;SDS011;41275;51.912;4.388;2023-02-11T01:39:04;20.55;;;3.55;;
21546;SDS011;41275;51.912;4.388;2023-02-11T01:44:35;20.83;;;3.55;;
21546;SDS011;41275;51.912;4.388;2023-02-11T01:49:59;13.37;;;3.37;;
21546;SDS011;41275;51.912;4.388;2023-02-11T01:55:21;15.57;;;3.63;;
21546;SDS011;41275;51.912;4.388;2023-02-11T02:01:01;20.87;;;3.47;;
21546;SDS011;41275;51.912;4.388;2023-02-11T02:06:28;15.77;;;3.83;;
21546;SDS011;41275;51.912;4.388;2023-02-11T02:12:17;17.73;;;4.13;;
21546;SDS011;41275;51.912;4.388;2023-02-11T02:17:40;18.33;;;4.00;;
21546;SDS011;41275;51.912;4.388;2023-02-11T02:23:11;21.38;;;4.32;;
21546;SDS011;41275;51.912;4.388;2023-02-11T02:34:42;17.57;;;4.30;;
21546;SDS011;41275;51.912;4.388;2023-02-11T02:40:11;18.57;;;4.07;;
21546;SDS011;41275;51.912;4.388;2023-02-11T02:45:36;17.50;;;4.45;;
21546;SDS011;41275;51.912;4.388;2023-02-11T02:51:02;19.52;;;4.43;;
21546;SDS011;41275;51.912;4.388;2023-02-11T03:02:35;18.13;;;5.23;;
21546;SDS011;41275;51.912;4.388;2023-02-11T03:08:07;18.10;;;5.55;;
21546;SDS011;41275;51.912;4.388;2023-02-11T03:13:33;22.95;;;5.47;;
21546;SDS011;41275;51.912;4.388;2023-02-11T03:18:58;18.08;;;5.05;;
21546;SDS011;41275;51.912;4.388;2023-02-11T03:24:29;22.02;;;5.30;;
21546;SDS011;41275;51.912;4.388;2023-02-11T03:29:58;23.13;;;5.40;;
21546;SDS011;41275;51.912;4.388;2023-02-11T03:35:31;25.37;;;5.07;;
21546;SDS011;41275;51.912;4.388;2023-02-11T03:41:01;14.47;;;5.27;;
21546;SDS011;41275;51.912;4.388;2023-02-11T03:46:35;20.65;;;5.43;;
21546;SDS011;41275;51.912;4.388;2023-02-11T03:51:58;18.73;;;5.80;;
21546;SDS011;41275;51.912;4.388;2023-02-11T03:57:22;23.70;;;6.18;;
21546;SDS011;41275;51.912;4.388;2023-02-11T04:02:43;19.50;;;5.47;;
21546;SDS011;41275;51.912;4.388;2023-02-11T04:08:05;21.33;;;6.60;;
21546;SDS011;41275;51.912;4.388;2023-02-11T04:13:26;19.85;;;6.05;;
21546;SDS011;41275;51.912;4.388;2023-02-11T04:18:47;24.73;;;7.07;;
21546;SDS011;41275;51.912;4.388;2023-02-11T04:24:09;24.27;;;7.90;;
21546;SDS011;41275;51.912;4.388;2023-02-11T04:29:30;24.50;;;7.72;;
21546;SDS011;41275;51.912;4.388;2023-02-11T04:34:51;23.35;;;8.60;;
21546;SDS011;41275;51.912;4.388;2023-02-11T04:40:14;24.38;;;8.63;;
21546;SDS011;41275;51.912;4.388;2023-02-11T04:45:35;29.23;;;9.25;;
21546;SDS011;41275;51.912;4.388;2023-02-11T04:50:56;20.70;;;7.75;;
21546;SDS011;41275;51.912;4.388;2023-02-11T04:56:17;22.98;;;8.50;;
21546;SDS011;41275;51.912;4.388;2023-02-11T05:01:38;29.13;;;8.67;;
21546;SDS011;41275;51.912;4.388;2023-02-11T05:07:00;25.77;;;9.20;;
21546;SDS011;41275;51.912;4.388;2023-02-11T05:12:21;24.70;;;8.80;;
21546;SDS011;41275;51.912;4.388;2023-02-11T05:17:42;26.73;;;11.40;;
21546;SDS011;41275;51.912;4.388;2023-02-11T05:23:03;27.80;;;12.37;;
21546;SDS011;41275;51.912;4.388;2023-02-11T05:28:24;29.37;;;12.37;;
21546;SDS011;41275;51.912;4.388;2023-02-11T05:33:46;27.17;;;11.70;;
21546;SDS011;41275;51.912;4.388;2023-02-11T05:39:07;27.10;;;10.60;;
21546;SDS011;41275;51.912;4.388;2023-02-11T05:44:28;30.47;;;11.63;;
21546;SDS011;41275;51.912;4.388;2023-02-11T05:49:50;29.00;;;11.83;;
21546;SDS011;41275;51.912;4.388;2023-02-11T05:55:11;30.23;;;11.95;;
21546;SDS011;41275;51.912;4.388;2023-02-11T06:00:33;31.15;;;13.13;;
21546;SDS011;41275;51.912;4.388;2023-02-11T06:05:54;33.47;;;13.70;;
21546;SDS011;41275;51.912;4.388;2023-02-11T06:11:16;28.95;;;13.32;;
21546;SDS011;41275;51.912;4.388;2023-02-11T06:16:37;28.67;;;12.93;;
21546;SDS011;41275;51.912;4.388;2023-02-11T06:21:59;31.40;;;13.17;;
21546;SDS011;41275;51.912;4.388;2023-02-11T06:27:20;33.90;;;13.75;;
21546;SDS011;41275;51.912;4.388;2023-02-11T06:32:41;29.95;;;13.52;;
21546;SDS011;41275;51.912;4.388;2023-02-11T06:38:02;32.03;;;12.77;;
21546;SDS011;41275;51.912;4.388;2023-02-11T06:43:24;33.15;;;14.32;;
21546;SDS011;41275;51.912;4.388;2023-02-11T06:48:45;33.40;;;14.73;;
21546;SDS011;41275;51.912;4.388;2023-02-11T06:54:06;35.70;;;14.70;;
21546;SDS011;41275;51.912;4.388;2023-02-11T06:59:28;31.00;;;14.93;;
21546;SDS011;41275;51.912;4.388;2023-02-11T07:04:49;31.93;;;14.87;;
21546;SDS011;41275;51.912;4.388;2023-02-11T07:10:10;37.53;;;16.17;;
21546;SDS011;41275;51.912;4.388;2023-02-11T07:15:32;36.50;;;15.37;;
21546;SDS011;41275;51.912;4.388;2023-02-11T07:20:53;33.55;;;16.00;;
21546;SDS011;41275;51.912;4.388;2023-02-11T07:26:15;37.70;;;16.20;;
21546;SDS011;41275;51.912;4.388;2023-02-11T07:31:38;38.63;;;15.88;;
21546;SDS011;41275;51.912;4.388;2023-02-11T07:37:00;33.53;;;15.70;;
21546;SDS011;41275;51.912;4.388;2023-02-11T07:42:21;34.72;;;15.63;;
21546;SDS011;41275;51.912;4.388;2023-02-11T07:47:42;31.60;;;15.57;;
21546;SDS011;41275;51.912;4.388;2023-02-11T07:53:03;34.58;;;15.95;;
21546;SDS011;41275;51.912;4.388;2023-02-11T07:58:25;37.67;;;15.73;;
21546;SDS011;41275;51.912;4.388;2023-02-11T08:03:46;32.05;;;14.82;;
21546;SDS011;41275;51.912;4.388;2023-02-11T08:09:09;34.30;;;15.45;;
21546;SDS011;41275;51.912;4.388;2023-02-11T08:14:33;34.23;;;14.70;;
21546;SDS011;41275;51.912;4.388;2023-02-11T08:19:55;32.40;;;14.53;;
21546;SDS011;41275;51.912;4.388;2023-02-11T08:25:16;29.37;;;14.33;;
21546;SDS011;41275;51.912;4.388;2023-02-11T08:30:37;32.03;;;14.13;;
21546;SDS011;41275;51.912;4.388;2023-02-11T08:35:59;28.10;;;13.17;;
21546;SDS011;41275;51.912;4.388;2023-02-11T08:41:20;30.90;;;13.20;;
21546;SDS011;41275;51.912;4.388;2023-02-11T08:46:41;31.48;;;12.98;;
21546;SDS011;41275;51.912;4.388;2023-02-11T08:52:02;27.53;;;13.33;;
21546;SDS011;41275;51.912;4.388;2023-02-11T08:57:24;27.13;;;12.63;;
21546;SDS011;41275;51.912;4.388;2023-02-11T09:02:45;27.53;;;13.00;;
21546;SDS011;41275;51.912;4.388;2023-02-11T09:08:06;23.77;;;12.00;;
21546;SDS011;41275;51.912;4.388;2023-02-11T09:13:27;26.20;;;12.02;;
21546;SDS011;41275;51.912;4.388;2023-02-11T09:18:48;22.00;;;11.02;;
21546;SDS011;41275;51.912;4.388;2023-02-11T09:24:10;20.67;;;10.60;;
21546;SDS011;41275;51.912;4.388;2023-02-11T09:29:32;24.85;;;11.07;;
21546;SDS011;41275;51.912;4.388;2023-02-11T09:34:53;20.13;;;10.30;;
21546;SDS011;41275;51.912;4.388;2023-02-11T09:40:14;21.25;;;9.68;;
21546;SDS011;41275;51.912;4.388;2023-02-11T09:45:36;18.92;;;9.02;;
21546;SDS011;41275;51.912;4.388;2023-02-11T09:50:58;20.03;;;9.90;;
21546;SDS011;41275;51.912;4.388;2023-02-11T09:56:21;20.80;;;9.47;;
21546;SDS011;41275;51.912;4.388;2023-02-11T10:07:23;20.93;;;9.63;;
21546;SDS011;41275;51.912;4.388;2023-02-11T10:18:57;21.30;;;10.05;;
21546;SDS011;41275;51.912;4.388;2023-02-11T10:24:33;23.52;;;10.63;;
21546;SDS011;41275;51.912;4.388;2023-02-11T10:29:56;21.73;;;10.40;;
21546;SDS011;41275;51.912;4.388;2023-02-11T10:35:22;21.30;;;9.90;;
21546;SDS011;41275;51.912;4.388;2023-02-11T10:40:44;21.83;;;10.37;;
21546;SDS011;41275;51.912;4.388;2023-02-11T10:57:52;18.98;;;9.80;;
21546;SDS011;41275;51.912;4.388;2023-02-11T11:03:17;17.63;;;9.98;;
21546;SDS011;41275;51.912;4.388;2023-02-11T11:08:41;22.20;;;10.30;;
21546;SDS011;41275;51.912;4.388;2023-02-11T11:14:03;19.88;;;9.38;;
21546;SDS011;41275;51.912;4.388;2023-02-11T11:19:38;17.52;;;9.32;;
21546;SDS011;41275;51.912;4.388;2023-02-11T11:24:59;23.35;;;9.55;;
21546;SDS011;41275;51.912;4.388;2023-02-11T11:30:21;21.13;;;9.57;;
21546;SDS011;41275;51.912;4.388;2023-02-11T11:35:55;16.80;;;9.00;;
21546;SDS011;41275;51.912;4.388;2023-02-11T11:41:23;15.82;;;8.40;;
21546;SDS011;41275;51.912;4.388;2023-02-11T11:46:46;17.83;;;8.88;;
21546;SDS011;41275;51.912;4.388;2023-02-11T11:52:31;17.00;;;8.75;;
21546;SDS011;41275;51.912;4.388;2023-02-11T11:58:03;18.30;;;8.95;;
21546;SDS011;41275;51.912;4.388;2023-02-11T12:09:19;18.35;;;8.25;;
21546;SDS011;41275;51.912;4.388;2023-02-11T12:14:55;15.23;;;7.82;;
21546;SDS011;41275;51.912;4.388;2023-02-11T12:26:09;15.27;;;7.90;;
21546;SDS011;41275;51.912;4.388;2023-02-11T12:31:54;15.75;;;7.75;;
21546;SDS011;41275;51.912;4.388;2023-02-11T12:37:29;15.37;;;7.77;;
21546;SDS011;41275;51.912;4.388;2023-02-11T12:48:48;14.33;;;7.57;;
21546;SDS011;41275;51.912;4.388;2023-02-11T12:59:48;12.38;;;6.70;;
21546;SDS011;41275;51.912;4.388;2023-02-11T13:10:58;13.68;;;6.53;;
21546;SDS011;41275;51.912;4.388;2023-02-11T13:27:44;12.27;;;6.60;;
21546;SDS011;41275;51.912;4.388;2023-02-11T13:33:19;15.97;;;6.50;;
21546;SDS011;41275;51.912;4.388;2023-02-11T13:38:56;13.23;;;6.55;;
21546;SDS011;41275;51.912;4.388;2023-02-11T13:44:23;13.48;;;6.03;;
21546;SDS011;41275;51.912;4.388;2023-02-11T13:49:48;11.73;;;5.90;;
21546;SDS011;41275;51.912;4.388;2023-02-11T13:55:20;15.20;;;5.97;;
21546;SDS011;41275;51.912;4.388;2023-02-11T14:00:48;11.85;;;6.00;;
21546;SDS011;41275;51.912;4.388;2023-02-11T14:06:11;13.70;;;5.63;;
21546;SDS011;41275;51.912;4.388;2023-02-11T14:11:53;13.07;;;6.10;;
21546;SDS011;41275;51.912;4.388;2023-02-11T14:17:45;10.17;;;3.73;;
21546;SDS011;41275;51.912;4.388;2023-02-11T14:23:15;10.55;;;3.53;;
21546;SDS011;41275;51.912;4.388;2023-02-11T14:28:42;7.10;;;2.80;;
21546;SDS011;41275;51.912;4.388;2023-02-11T14:40:15;6.53;;;2.40;;
21546;SDS011;41275;51.912;4.388;2023-02-11T14:45:52;7.88;;;2.67;;
21546;SDS011;41275;51.912;4.388;2023-02-11T14:51:19;8.05;;;3.00;;
21546;SDS011;41275;51.912;4.388;2023-02-11T14:56:44;7.95;;;3.03;;
21546;SDS011;41275;51.912;4.388;2023-02-11T15:02:15;8.52;;;3.15;;
21546;SDS011;41275;51.912;4.388;2023-02-11T15:07:42;10.15;;;3.70;;
21546;SDS011;41275;51.912;4.388;2023-02-11T15:13:05;7.53;;;3.70;;
21546;SDS011;41275;51.912;4.388;2023-02-11T15:18:30;7.47;;;3.30;;
21546;SDS011;41275;51.912;4.388;2023-02-11T15:23:59;7.82;;;3.30;;
21546;SDS011;41275;51.912;4.388;2023-02-11T15:29:39;11.70;;;4.53;;
21546;SDS011;41275;51.912;4.388;2023-02-11T15:35:03;9.52;;;4.43;;
21546;SDS011;41275;51.912;4.388;2023-02-11T15:40:29;11.95;;;4.47;;
21546;SDS011;41275;51.912;4.388;2023-02-11T15:45:58;13.70;;;4.82;;
21546;SDS011;41275;51.912;4.388;2023-02-11T15:51:22;8.23;;;3.87;;
21546;SDS011;41275;51.912;4.388;2023-02-11T15:56:50;9.57;;;4.20;;
21546;SDS011;41275;51.912;4.388;2023-02-11T16:02:24;10.65;;;3.65;;
21546;SDS011;41275;51.912;4.388;2023-02-11T16:07:53;9.07;;;3.40;;
21546;SDS011;41275;51.912;4.388;2023-02-11T16:13:16;7.75;;;3.20;;
21546;SDS011;41275;51.912;4.388;2023-02-11T16:18:43;8.00;;;3.20;;
21546;SDS011;41275;51.912;4.388;2023-02-11T16:30:21;7.75;;;3.92;;
21546;SDS011;41275;51.912;4.388;2023-02-11T16:35:46;11.70;;;4.50;;
21546;SDS011;41275;51.912;4.388;2023-02-11T16:41:08;9.18;;;4.20;;
21546;SDS011;41275;51.912;4.388;2023-02-11T16:46:31;6.63;;;3.23;;
21546;SDS011;41275;51.912;4.388;2023-02-11T16:51:54;8.63;;;3.33;;
21546;SDS011;41275;51.912;4.388;2023-02-11T16:57:22;8.87;;;4.00;;
21546;SDS011;41275;51.912;4.388;2023-02-11T17:02:44;8.82;;;3.60;;
21546;SDS011;41275;51.912;4.388;2023-02-11T17:08:06;12.23;;;3.43;;
21546;SDS011;41275;51.912;4.388;2023-02-11T17:13:27;9.03;;;3.87;;
21546;SDS011;41275;51.912;4.388;2023-02-11T17:18:48;8.52;;;3.83;;
21546;SDS011;41275;51.912;4.388;2023-02-11T17:24:09;9.27;;;4.00;;
21546;SDS011;41275;51.912;4.388;2023-02-11T17:29:30;9.57;;;4.75;;
21546;SDS011;41275;51.912;4.388;2023-02-11T17:34:52;8.43;;;3.92;;
21546;SDS011;41275;51.912;4.388;2023-02-11T17:40:14;9.45;;;3.80;;
21546;SDS011;41275;51.912;4.388;2023-02-11T17:45:39;13.07;;;4.30;;
21546;SDS011;41275;51.912;4.388;2023-02-11T17:51:01;11.02;;;4.72;;
21546;SDS011;41275;51.912;4.388;2023-02-11T17:56:22;10.13;;;4.10;;
21546;SDS011;41275;51.912;4.388;2023-02-11T18:01:44;11.13;;;4.97;;
21546;SDS011;41275;51.912;4.388;2023-02-11T18:07:05;11.52;;;4.47;;
21546;SDS011;41275;51.912;4.388;2023-02-11T18:12:26;12.75;;;6.32;;
21546;SDS011;41275;51.912;4.388;2023-02-11T18:17:48;11.52;;;4.55;;
21546;SDS011;41275;51.912;4.388;2023-02-11T18:23:09;10.68;;;4.80;;
21546;SDS011;41275;51.912;4.388;2023-02-11T18:28:30;9.65;;;4.60;;
21546;SDS011;41275;51.912;4.388;2023-02-11T18:33:52;11.20;;;6.73;;
21546;SDS011;41275;51.912;4.388;2023-02-11T18:39:13;7.70;;;4.70;;
21546;SDS011;41275;51.912;4.388;2023-02-11T18:44:35;8.77;;;4.60;;
21546;SDS011;41275;51.912;4.388;2023-02-11T18:49:56;10.43;;;5.03;;
21546;SDS011;41275;51.912;4.388;2023-02-11T18:55:17;13.43;;;5.38;;
21546;SDS011;41275;51.912;4.388;2023-02-11T19:00:42;12.32;;;5.15;;
21546;SDS011;41275;51.912;4.388;2023-02-11T19:06:12;12.47;;;5.83;;
21546;SDS011;41275;51.912;4.388;2023-02-11T19:11:41;10.25;;;5.43;;
21546;SDS011;41275;51.912;4.388;2023-02-11T19:17:13;12.50;;;4.40;;
21546;SDS011;41275;51.912;4.388;2023-02-11T19:22:35;13.10;;;5.47;;
21546;SDS011;41275;51.912;4.388;2023-02-11T19:27:56;7.45;;;3.60;;
21546;SDS011;41275;51.912;4.388;2023-02-11T19:33:17;8.18;;;3.97;;
21546;SDS011;41275;51.912;4.388;2023-02-11T19:38:38;10.35;;;4.68;;
21546;SDS011;41275;51.912;4.388;2023-02-11T19:44:00;10.68;;;4.75;;
21546;SDS011;41275;51.912;4.388;2023-02-11T19:49:22;8.50;;;4.20;;
21546;SDS011;41275;51.912;4.388;2023-02-11T19:54:44;7.50;;;3.58;;
21546;SDS011;41275;51.912;4.388;2023-02-11T20:00:05;10.00;;;4.05;;
21546;SDS011;41275;51.912;4.388;2023-02-11T20:05:27;7.50;;;3.70;;
21546;SDS011;41275;51.912;4.388;2023-02-11T20:10:48;6.77;;;3.67;;
21546;SDS011;41275;51.912;4.388;2023-02-11T20:16:11;9.90;;;4.20;;
21546;SDS011;41275;51.912;4.388;2023-02-11T20:21:36;14.23;;;5.80;;
21546;SDS011;41275;51.912;4.388;2023-02-11T20:26:57;8.95;;;4.13;;
21546;SDS011;41275;51.912;4.388;2023-02-11T20:32:18;8.27;;;3.80;;
21546;SDS011;41275;51.912;4.388;2023-02-11T20:37:40;8.30;;;4.40;;
21546;SDS011;41275;51.912;4.388;2023-02-11T20:43:01;7.13;;;3.60;;
21546;SDS011;41275;51.912;4.388;2023-02-11T20:48:22;8.48;;;4.00;;
21546;SDS011;41275;51.912;4.388;2023-02-11T20:53:44;8.45;;;5.03;;
21546;SDS011;41275;51.912;4.388;2023-02-11T20:59:11;9.53;;;4.50;;
21546;SDS011;41275;51.912;4.388;2023-02-11T21:04:33;6.22;;;3.75;;
21546;SDS011;41275;51.912;4.388;2023-02-11T21:09:54;10.80;;;4.75;;
21546;SDS011;41275;51.912;4.388;2023-02-11T21:15:16;9.85;;;4.80;;
21546;SDS011;41275;51.912;4.388;2023-02-11T21:20:37;8.68;;;3.97;;
21546;SDS011;41275;51.912;4.388;2023-02-11T21:25:58;8.33;;;4.67;;
21546;SDS011;41275;51.912;4.388;2023-02-11T21:31:20;8.87;;;4.60;;
21546;SDS011;41275;51.912;4.388;2023-02-11T21:36:43;10.00;;;5.22;;
21546;SDS011;41275;51.912;4.388;2023-02-11T21:42:04;12.18;;;6.13;;
21546;SDS011;41275;51.912;4.388;2023-02-11T21:47:26;15.40;;;8.77;;
21546;SDS011;41275;51.912;4.388;2023-02-11T21:52:47;11.48;;;6.38;;
21546;SDS011;41275;51.912;4.388;2023-02-11T21:58:09;11.83;;;5.90;;
21546;SDS011;41275;51.912;4.388;2023-02-11T22:03:32;8.70;;;5.28;;
21546;SDS011;41275;51.912;4.388;2023-02-11T22:08:53;10.80;;;5.20;;
21546;SDS011;41275;51.912;4.388;2023-02-11T22:14:15;8.77;;;4.55;;
21546;SDS011;41275;51.912;4.388;2023-02-11T22:19:36;9.20;;;4.63;;
21546;SDS011;41275;51.912;4.388;2023-02-11T22:24:58;7.93;;;4.30;;
21546;SDS011;41275;51.912;4.388;2023-02-11T22:30:21;19.00;;;8.20;;
21546;SDS011;41275;51.912;4.388;2023-02-11T22:35:43;8.77;;;4.30;;
21546;SDS011;41275;51.912;4.388;2023-02-11T22:41:05;10.23;;;5.63;;
21546;SDS011;41275;51.912;4.388;2023-02-11T22:46:28;9.55;;;4.70;;
21546;SDS011;41275;51.912;4.388;2023-02-11T22:51:49;9.43;;;5.45;;
21546;SDS011;41275;51.912;4.388;2023-02-11T22:57:10;8.18;;;4.88;;
21546;SDS011;41275;51.912;4.388;2023-02-11T23:02:32;8.73;;;4.20;;
21546;SDS011;41275;51.912;4.388;2023-02-11T23:07:53;9.10;;;4.00;;
21546;SDS011;41275;51.912;4.388;2023-02-11T23:13:14;8.82;;;3.45;;
21546;SDS011;41275;51.912;4.388;2023-02-11T23:18:36;7.57;;;3.50;;
21546;SDS011;41275;51.912;4.388;2023-02-11T23:24:00;9.20;;;3.85;;
21546;SDS011;41275;51.912;4.388;2023-02-11T23:29:23;8.85;;;3.88;;
21546;SDS011;41275;51.912;4.388;2023-02-11T23:34:45;8.13;;;3.58;;
21546;SDS011;41275;51.912;4.388;2023-02-11T23:40:06;7.80;;;3.60;;
21546;SDS011;41275;51.912;4.388;2023-02-11T23:45:28;6.40;;;3.10;;
21546;SDS011;41275;51.912;4.388;2023-02-11T23:50:49;7.00;;;3.30;;
21546;SDS011;41275;51.912;4.388;2023-02-11T23:56:15;8.30;;;3.27;;
